Time;durP1;ratioP1;P1;durP2;ratioP2;P2;SDS_P1;SDS_P2;PMS_P1;PMS_P2;Temp;Humidity;BMP_temperature;BMP_pressure;BME280_temperature;BME280_humidity;BME280_pressure;Samples;Min_cycle;Max_cycle;Signal;HPM_P1;HPM_P2
2021/04/07 00:01:48;;;;;;;65.93;33.75;;;;;;;6.44;79.62;98181.13;5049961;28;20055;-39
2021/04/07 00:04:14;;;;;;;73.07;35.55;;;;;;;6.50;78.94;98174.16;5049808;28;20440;-38
2021/04/07 00:06:40;;;;;;;62.80;33.38;;;;;;;6.39;79.25;98170.38;5049901;28;20033;-39
2021/04/07 00:09:06;;;;;;;64.07;33.22;;;;;;;6.35;79.95;98166.53;5047002;28;20504;-39
2021/04/07 00:11:31;;;;;;;62.50;32.17;;;;;;;6.26;79.56;98163.38;5049518;28;20418;-38
2021/04/07 00:13:57;;;;;;;71.72;33.92;;;;;;;6.32;80.23;98161.72;5050142;28;20061;-39
2021/04/07 00:16:23;;;;;;;68.88;34.90;;;;;;;6.37;79.42;98161.06;5050283;28;20469;-38
2021/04/07 00:18:48;;;;;;;71.68;34.75;;;;;;;6.18;80.25;98158.31;5050016;28;20038;-39
2021/04/07 00:21:14;;;;;;;65.72;34.47;;;;;;;6.23;80.46;98150.56;5049791;28;20091;-38
2021/04/07 00:23:39;;;;;;;70.65;33.90;;;;;;;6.19;79.72;98151.22;5049587;28;20492;-39
2021/04/07 00:26:05;;;;;;;68.43;33.58;;;;;;;6.06;80.40;98139.72;5049490;28;20021;-39
2021/04/07 00:28:30;;;;;;;66.85;34.70;;;;;;;6.18;80.02;98139.84;5049638;28;20021;-39
2021/04/07 00:30:57;;;;;;;68.60;33.60;;;;;;;6.28;80.18;98131.44;5049779;28;20033;-40
2021/04/07 00:33:22;;;;;;;71.38;35.15;;;;;;;6.32;79.19;98147.66;5049746;28;20036;-38
2021/04/07 00:35:48;;;;;;;65.45;34.70;;;;;;;6.33;79.49;98144.00;5049611;28;20422;-38
2021/04/07 00:38:13;;;;;;;72.28;36.30;;;;;;;6.50;78.83;98150.38;5049670;28;20082;-38
2021/04/07 00:40:39;;;;;;;70.15;35.00;;;;;;;6.34;78.86;98143.81;5049598;28;20122;-39
2021/04/07 00:43:04;;;;;;;69.18;34.05;;;;;;;6.01;79.78;98142.19;5049530;28;20036;-39
2021/04/07 00:45:30;;;;;;;71.32;34.92;;;;;;;6.29;78.45;98127.78;5049674;28;20108;-38
2021/04/07 00:47:56;;;;;;;71.32;37.15;;;;;;;6.04;79.97;98138.31;5048858;28;20029;-39
2021/04/07 00:50:24;;;;;;;69.90;34.75;;;;;;;6.28;78.38;98147.28;5049034;28;20044;-38
2021/04/07 00:52:50;;;;;;;76.88;36.08;;;;;;;6.23;78.80;98163.78;5049595;28;20402;-38
2021/04/07 00:55:16;;;;;;;67.30;33.75;;;;;;;6.16;79.00;98167.50;5049438;28;20083;-38
2021/04/07 00:57:42;;;;;;;63.20;33.08;;;;;;;5.94;79.46;98165.16;5048224;28;20053;-38
2021/04/07 01:00:09;;;;;;;65.85;34.58;;;;;;;5.96;79.71;98168.44;5030891;28;20096;-38
2021/04/07 01:02:34;;;;;;;70.25;35.35;;;;;;;6.18;78.71;98158.31;5049915;28;20112;-38
2021/04/07 01:05:00;;;;;;;83.28;39.47;;;;;;;6.26;78.48;98158.09;5049529;28;20456;-38
2021/04/07 01:07:26;;;;;;;78.13;38.60;;;;;;;6.03;79.16;98148.06;5048076;28;20021;-38
2021/04/07 01:09:51;;;;;;;76.13;36.50;;;;;;;5.87;79.19;98143.25;5031236;28;20145;-39
2021/04/07 01:12:17;;;;;;;77.57;36.15;;;;;;;5.73;80.44;98150.44;5051810;28;20397;-38
2021/04/07 01:14:42;;;;;;;71.90;34.25;;;;;;;5.68;80.73;98143.16;5053049;28;20017;-39
2021/04/07 01:17:08;;;;;;;77.13;37.30;;;;;;;5.93;79.72;98146.88;5051495;28;20052;-38
2021/04/07 01:19:34;;;;;;;81.13;37.38;;;;;;;6.02;78.36;98143.00;5051563;28;20039;-38
2021/04/07 01:21:59;;;;;;;103.63;48.47;;;;;;;5.91;78.99;98156.84;5051587;28;20028;-39
2021/04/07 01:24:25;;;;;;;96.93;45.05;;;;;;;5.76;79.38;98160.56;5051189;28;20021;-39
2021/04/07 01:26:50;;;;;;;111.85;50.03;;;;;;;5.82;79.41;98162.38;5053026;28;20139;-39
2021/04/07 01:29:16;;;;;;;198.15;88.40;;;;;;;5.58;79.70;98153.38;5052638;28;20071;-39
2021/04/07 01:31:51;;;;;;;250.93;112.35;;;;;;;5.70;79.26;98153.50;5052617;28;20056;-39
2021/04/07 01:34:26;;;;;;;281.08;126.35;;;;;;;5.65;79.16;98148.88;5053023;28;20029;-38
2021/04/07 01:36:52;;;;;;;261.00;117.53;;;;;;;5.91;77.62;98144.47;5052656;28;20032;-39
2021/04/07 01:39:19;;;;;;;261.48;118.25;;;;;;;5.51;78.48;98149.13;5052498;28;20079;-38
2021/04/07 01:41:45;;;;;;;260.63;115.55;;;;;;;5.37;79.11;98146.53;5052940;28;20028;-38
2021/04/07 01:44:11;;;;;;;249.93;112.88;;;;;;;5.42;79.34;98138.78;5052471;28;20381;-39
2021/04/07 01:46:36;;;;;;;233.50;109.57;;;;;;;5.43;79.03;98137.78;5051230;28;20099;-38
2021/04/07 01:49:03;;;;;;;242.85;107.90;;;;;;;5.10;79.88;98116.78;5019292;28;20115;-39
2021/04/07 01:51:28;;;;;;;243.02;110.22;;;;;;;4.96;80.50;98123.13;5031230;28;20083;-39
2021/04/07 01:53:59;;;;;;;230.57;107.05;;;;;;;4.99;79.75;98141.16;5031308;28;20041;-39
2021/04/07 01:56:24;;;;;;;256.08;115.75;;;;;;;5.05;79.56;98154.34;5032419;28;20115;-38
2021/04/07 01:59:16;;;;;;;267.13;121.82;;;;;;;4.92;79.97;98137.75;5037411;28;20472;-38
2021/04/07 02:01:42;;;;;;;282.52;122.82;;;;;;;4.66;80.35;98140.22;5049410;28;20033;-37
2021/04/07 02:04:07;;;;;;;291.73;130.93;;;;;;;4.67;80.76;98138.38;5052255;28;20381;-38
2021/04/07 02:06:33;;;;;;;292.48;132.90;;;;;;;4.67;80.56;98136.56;5052329;28;20691;-38
2021/04/07 02:08:59;;;;;;;311.75;138.98;;;;;;;5.15;80.51;98119.63;5051822;28;20075;-38
2021/04/07 02:11:24;;;;;;;323.00;142.18;;;;;;;5.25;79.45;98129.72;5052115;28;20110;-38
2021/04/07 02:13:50;;;;;;;304.13;134.52;;;;;;;5.12;79.48;98137.69;5052094;28;20021;-38
2021/04/07 02:16:15;;;;;;;294.10;124.78;;;;;;;4.97;79.83;98135.28;5051939;28;20044;-38
2021/04/07 02:18:41;;;;;;;272.02;122.80;;;;;;;4.86;79.97;98136.75;5051876;28;20025;-38
2021/04/07 02:21:07;;;;;;;291.15;126.80;;;;;;;4.90;79.50;98132.69;5052012;28;20032;-38
2021/04/07 02:23:34;;;;;;;299.15;127.60;;;;;;;4.78;79.92;98129.03;5050655;28;20031;-38
2021/04/07 02:25:59;;;;;;;291.17;125.10;;;;;;;4.78;80.04;98126.41;5051874;28;20035;-39
2021/04/07 02:28:25;;;;;;;292.25;125.35;;;;;;;4.85;80.13;98128.00;5051544;28;20029;-39
2021/04/07 02:30:50;;;;;;;267.80;109.88;;;;;;;4.77;79.86;98120.31;5051572;28;20029;-39
2021/04/07 02:33:16;;;;;;;239.18;107.22;;;;;;;4.53;81.03;98126.22;5051759;28;20485;-39
2021/04/07 02:35:42;;;;;;;230.55;96.65;;;;;;;4.57;81.21;98124.81;5051538;28;20389;-39
2021/04/07 02:38:08;;;;;;;210.40;89.30;;;;;;;4.47;81.33;98123.41;5051369;28;20024;-38
2021/04/07 02:40:33;;;;;;;182.00;81.85;;;;;;;4.57;81.23;98128.28;5051266;28;20029;-39
2021/04/07 02:42:59;;;;;;;210.68;89.47;;;;;;;4.43;80.29;98122.19;5051578;28;20072;-39
2021/04/07 02:45:24;;;;;;;202.20;89.20;;;;;;;4.27;81.34;98133.94;5051166;28;20397;-39
2021/04/07 02:47:50;;;;;;;203.52;91.43;;;;;;;4.29;81.53;98134.53;5051096;28;20021;-37
2021/04/07 02:50:15;;;;;;;202.35;86.63;;;;;;;4.33;81.85;98136.78;5051424;28;20025;-38
2021/04/07 02:52:41;;;;;;;191.80;83.03;;;;;;;4.24;82.03;98142.22;5051480;28;20028;-38
2021/04/07 02:55:06;;;;;;;249.63;106.13;;;;;;;4.46;80.66;98139.41;5051032;28;20029;-39
2021/04/07 02:57:32;;;;;;;263.25;110.32;;;;;;;4.47;81.44;98141.84;5050872;28;20035;-38
2021/04/07 02:59:57;;;;;;;234.73;102.30;;;;;;;4.41;81.27;98142.66;5050871;28;20029;-38
2021/04/07 03:02:23;;;;;;;224.93;97.43;;;;;;;4.33;81.28;98139.41;5051246;28;20029;-38
2021/04/07 03:04:48;;;;;;;219.68;95.00;;;;;;;4.41;80.85;98144.47;5050808;28;20543;-39
2021/04/07 03:07:14;;;;;;;212.27;86.60;;;;;;;4.32;81.79;98151.75;5050726;28;20040;-37
2021/04/07 03:09:39;;;;;;;199.95;84.70;;;;;;;4.52;80.87;98141.22;5050678;28;20057;-38
2021/04/07 03:12:05;;;;;;;198.48;84.32;;;;;;;4.71;80.18;98139.59;5050845;28;20413;-39
2021/04/07 03:14:31;;;;;;;205.55;86.45;;;;;;;4.63;79.88;98138.00;5050827;28;20021;-39
2021/04/07 03:16:56;;;;;;;171.57;73.47;;;;;;;4.29;80.96;98147.72;5050766;28;20461;-38
2021/04/07 03:19:22;;;;;;;170.20;69.60;;;;;;;4.52;80.96;98149.13;5050991;28;20029;-38
2021/04/07 03:21:47;;;;;;;132.48;56.40;;;;;;;4.29;81.90;98147.72;5050730;28;20028;-38
2021/04/07 03:24:13;;;;;;;185.80;79.15;;;;;;;4.27;81.58;98143.66;5050610;28;20083;-38
2021/04/07 03:26:38;;;;;;;136.82;58.00;;;;;;;4.23;80.81;98132.72;5050920;28;20029;-39
2021/04/07 03:29:03;;;;;;;115.22;47.55;;;;;;;4.33;80.54;98140.22;5049674;28;20442;-38
2021/04/07 03:31:29;;;;;;;105.03;47.15;;;;;;;3.95;81.01;98108.41;5050728;28;20032;-39
2021/04/07 03:33:54;;;;;;;152.95;63.42;;;;;;;4.43;80.46;98142.44;5050087;28;20484;-39
2021/04/07 03:36:20;;;;;;;169.25;71.68;;;;;;;4.43;79.87;98142.44;5050270;28;20033;-39
2021/04/07 03:38:45;;;;;;;178.10;73.18;;;;;;;4.60;79.53;98142.84;5050314;28;20028;-39
2021/04/07 03:41:11;;;;;;;203.35;83.03;;;;;;;4.60;79.89;98151.56;5050203;28;20040;-37
2021/04/07 03:43:36;;;;;;;205.57;84.47;;;;;;;4.53;79.92;98142.84;5050114;28;20032;-39
2021/04/07 03:46:02;;;;;;;202.40;84.75;;;;;;;4.46;80.11;98156.03;5050584;28;20040;-39
2021/04/07 03:48:29;;;;;;;185.75;77.53;;;;;;;4.38;80.61;98139.59;5039611;28;20469;-39
2021/04/07 03:50:55;;;;;;;189.43;78.78;;;;;;;4.33;80.85;98137.59;5030108;28;20207;-39
2021/04/07 03:53:21;;;;;;;202.93;86.68;;;;;;;4.29;81.21;98141.63;5030369;28;20037;-38
2021/04/07 03:55:48;;;;;;;192.85;80.05;;;;;;;4.32;81.63;98141.22;5030686;28;20061;-39
2021/04/07 03:58:14;;;;;;;176.05;74.45;;;;;;;4.60;80.36;98138.38;5030447;28;20037;-39
2021/04/07 04:00:39;;;;;;;205.68;82.05;;;;;;;4.75;79.31;98135.53;5050084;28;20025;-39
2021/04/07 04:03:06;;;;;;;210.25;83.82;;;;;;;4.59;79.77;98157.03;5050155;28;20113;-39
2021/04/07 04:05:32;;;;;;;207.50;85.55;;;;;;;4.54;80.20;98149.75;5050474;28;20041;-39
2021/04/07 04:07:58;;;;;;;230.52;92.57;;;;;;;4.63;81.01;98169.59;5049885;28;20040;-39
2021/04/07 04:10:23;;;;;;;222.95;93.30;;;;;;;4.57;81.04;98173.06;5049972;28;20481;-39
2021/04/07 04:12:48;;;;;;;276.08;106.18;;;;;;;4.48;81.32;98180.34;5050060;28;20025;-40
2021/04/07 04:15:14;;;;;;;265.08;101.57;;;;;;;4.99;83.14;98165.72;5049972;28;20051;-40
2021/04/07 04:17:40;;;;;;;330.83;132.52;;;;;;;5.15;79.75;98155.75;5050010;28;20525;-39
2021/04/07 04:20:06;;;;;;;273.95;98.22;;;;;;;5.05;80.77;98156.97;5049814;28;20043;-40
2021/04/07 04:22:32;;;;;;;275.23;106.35;;;;;;;4.90;80.94;98165.13;5049764;28;20128;-39
2021/04/07 04:24:58;;;;;;;381.15;99.18;;;;;;;9.03;90.29;98166.72;5048725;28;20033;-40
2021/04/07 04:27:23;;;;;;;277.83;115.47;;;;;;;12.43;68.23;98148.53;5049957;28;20025;-40
2021/04/07 04:29:49;;;;;;;246.88;118.35;;;;;;;10.11;61.13;98162.50;5049374;28;20025;-39
2021/04/07 04:32:14;;;;;;;243.80;116.53;;;;;;;8.18;66.08;98158.03;5031754;28;20487;-39
2021/04/07 04:34:39;;;;;;;245.05;112.32;;;;;;;6.65;71.92;98156.16;5033700;28;20040;-40
2021/04/07 04:37:05;;;;;;;204.90;93.88;;;;;;;6.04;74.79;98152.31;5049612;28;20032;-40
2021/04/07 04:39:30;;;;;;;195.27;90.38;;;;;;;5.72;75.54;98162.03;5049344;28;20492;-40
2021/04/07 04:41:56;;;;;;;153.52;69.50;;;;;;;5.46;77.62;98150.56;5037467;28;20029;-38
2021/04/07 04:44:21;;;;;;;161.75;68.90;;;;;;;5.39;78.01;98155.06;5047201;28;20021;-40
2021/04/07 04:46:47;;;;;;;176.57;71.97;;;;;;;5.55;78.18;98153.78;5049286;28;20021;-39
2021/04/07 04:49:12;;;;;;;161.23;68.50;;;;;;;5.46;78.18;98168.22;5051387;28;20029;-39
2021/04/07 04:51:38;;;;;;;154.35;64.38;;;;;;;5.27;78.58;98159.34;5051472;28;20025;-39
2021/04/07 04:54:04;;;;;;;174.15;66.68;;;;;;;5.11;79.67;98165.09;5051383;28;20412;-39
2021/04/07 04:56:30;;;;;;;191.80;69.15;;;;;;;4.87;81.63;98173.44;5051969;28;20021;-39
2021/04/07 04:58:55;;;;;;;166.02;59.10;;;;;;;4.94;80.27;98170.00;5046373;28;20098;-38
2021/04/07 05:01:21;;;;;;;188.05;62.72;;;;;;;4.93;81.14;98171.81;5032781;28;20056;-39
2021/04/07 05:03:46;;;;;;;181.52;61.20;;;;;;;4.88;81.72;98169.78;5032398;28;20029;-39
2021/04/07 05:06:11;;;;;;;169.18;56.00;;;;;;;4.78;81.37;98169.41;5032412;28;20035;-39
2021/04/07 05:08:37;;;;;;;180.20;53.53;;;;;;;4.88;83.13;98166.34;5032717;28;20029;-39
2021/04/07 05:11:02;;;;;;;193.77;54.88;;;;;;;5.63;81.26;98171.19;5032461;28;20037;-39
2021/04/07 05:13:28;;;;;;;138.90;47.95;;;;;;;5.28;80.52;98184.72;5032523;28;20103;-39
2021/04/07 05:15:53;;;;;;;125.53;43.05;;;;;;;5.05;81.58;98174.63;5032439;28;20026;-38
2021/04/07 05:18:21;;;;;;;101.30;38.00;;;;;;;5.01;80.43;98176.06;5032656;28;20049;-40
2021/04/07 05:20:47;;;;;;;107.50;40.28;;;;;;;5.28;79.75;98176.81;5032656;28;20061;-40
2021/04/07 05:23:12;;;;;;;114.18;41.92;;;;;;;4.95;81.07;98192.69;5032442;28;20037;-40
2021/04/07 05:25:38;;;;;;;110.05;42.03;;;;;;;5.07;80.53;98193.69;5032057;28;20073;-39
2021/04/07 05:28:04;;;;;;;101.47;37.95;;;;;;;5.03;80.50;98195.94;5032280;28;20026;-39
2021/04/07 05:30:58;;;;;;;109.20;41.65;;;;;;;5.71;80.13;98202.63;5032316;28;20040;-40
2021/04/07 05:33:16;;;;;;;108.80;41.30;;;;;;;5.94;78.61;98206.59;5032122;28;20099;-39
2021/04/07 05:35:42;;;;;;;110.30;41.63;;;;;;;5.79;77.87;98226.16;5032211;28;20108;-39
2021/04/07 05:38:07;;;;;;;92.00;37.38;;;;;;;5.43;78.71;98222.22;5031933;28;20417;-41
2021/04/07 05:40:33;;;;;;;96.25;38.53;;;;;;;5.53;78.85;98227.06;5032079;28;20033;-40
2021/04/07 05:43:01;;;;;;;96.25;38.95;;;;;;;5.57;79.58;98216.91;5031836;28;20025;-40
2021/04/07 05:45:27;;;;;;;97.82;38.90;;;;;;;5.93;78.96;98223.47;5032019;28;20025;-39
2021/04/07 05:47:52;;;;;;;90.63;38.00;;;;;;;5.96;77.94;98223.88;5032211;28;20512;-39
2021/04/07 05:50:17;;;;;;;110.65;39.08;;;;;;;6.63;77.93;98231.41;5031950;28;20117;-39
2021/04/07 05:52:43;;;;;;;95.88;39.00;;;;;;;7.15;78.45;98247.06;5031875;28;20032;-39
2021/04/07 05:55:10;;;;;;;95.45;38.58;;;;;;;7.48;75.69;98261.78;5031972;28;20418;-38
2021/04/07 05:57:36;;;;;;;89.88;39.03;;;;;;;7.77;75.44;98255.78;5032065;28;20026;-38
2021/04/07 06:00:01;;;;;;;91.95;38.58;;;;;;;7.95;74.99;98265.53;5032148;28;20406;-39
2021/04/07 06:02:27;;;;;;;97.47;39.50;;;;;;;8.74;73.70;98288.59;5032232;28;20095;-39
2021/04/07 06:04:52;;;;;;;113.65;47.25;;;;;;;9.53;72.11;98283.03;5032007;28;20037;-39
2021/04/07 06:07:18;;;;;;;122.75;48.80;;;;;;;10.34;72.02;98286.56;5031429;28;20155;-39
2021/04/07 06:09:43;;;;;;;142.38;56.67;;;;;;;10.46;69.30;98299.81;5045589;28;20551;-39
2021/04/07 06:12:08;;;;;;;154.20;65.03;;;;;;;10.45;68.61;98303.53;5051490;28;20086;-39
2021/04/07 06:14:34;;;;;;;151.15;61.33;;;;;;;10.22;69.49;98312.34;5051460;28;20551;-39
2021/04/07 06:16:59;;;;;;;131.77;57.47;;;;;;;10.28;69.87;98321.22;5051357;28;20053;-38
2021/04/07 06:19:25;;;;;;;100.63;47.92;;;;;;;10.42;69.89;98322.63;5051232;28;20051;-39
2021/04/07 06:21:50;;;;;;;76.65;37.90;;;;;;;9.97;71.43;98334.69;5051212;28;20065;-38
2021/04/07 06:24:16;;;;;;;73.72;37.45;;;;;;;9.94;69.71;98326.41;5050918;28;20017;-39
2021/04/07 06:26:41;;;;;;;74.05;38.05;;;;;;;9.58;70.94;98328.28;5050966;28;20031;-38
2021/04/07 06:29:07;;;;;;;78.97;39.53;;;;;;;9.24;72.12;98325.38;5051165;28;20025;-38
2021/04/07 06:31:32;;;;;;;75.43;37.38;;;;;;;8.94;72.81;98318.28;5051434;28;20127;-39
2021/04/07 06:33:58;;;;;;;66.78;36.10;;;;;;;9.26;73.07;98320.66;5051212;28;20021;-38
2021/04/07 06:36:23;;;;;;;63.75;33.08;;;;;;;9.71;72.47;98330.72;5051267;28;20485;-38
2021/04/07 06:38:48;;;;;;;52.85;28.77;;;;;;;9.94;71.95;98334.38;5050754;28;20374;-38
2021/04/07 06:41:14;;;;;;;50.38;27.85;;;;;;;9.97;71.92;98355.97;5051228;28;20090;-39
2021/04/07 06:43:39;;;;;;;52.30;26.92;;;;;;;9.75;71.54;98342.47;5033007;28;20382;-38
2021/04/07 06:46:08;;;;;;;43.45;24.48;;;;;;;10.08;70.80;98346.38;5050673;28;20061;-39
2021/04/07 06:48:33;;;;;;;46.80;22.83;;;;;;;10.11;70.84;98351.22;5050661;28;20025;-38
2021/04/07 06:50:59;;;;;;;41.17;22.15;;;;;;;10.24;70.79;98344.81;5050853;28;20507;-39
2021/04/07 06:53:26;;;;;;;37.85;21.75;;;;;;;10.24;70.97;98333.38;5049662;28;20024;-37
2021/04/07 06:55:51;;;;;;;37.45;21.42;;;;;;;10.35;71.00;98332.56;5050619;28;20461;-38
2021/04/07 06:58:17;;;;;;;34.40;21.42;;;;;;;10.76;70.24;98331.47;5050529;28;20034;-37
2021/04/07 07:00:42;;;;;;;35.92;20.60;;;;;;;11.39;68.33;98350.09;5050571;28;20025;-38
2021/04/07 07:03:13;;;;;;;38.08;21.55;;;;;;;11.70;68.24;98364.69;5050406;28;20411;-38
2021/04/07 07:05:46;;;;;;;34.75;20.83;;;;;;;11.93;67.79;98378.91;5050607;28;20083;-38
2021/04/07 07:08:13;;;;;;;36.65;21.15;;;;;;;12.16;66.35;98369.06;5050294;28;20186;-38
2021/04/07 07:10:50;;;;;;;36.15;21.48;;;;;;;12.37;66.02;98384.28;5048793;28;20171;-38
2021/04/07 07:13:20;;;;;;;37.00;21.10;;;;;;;12.34;65.61;98374.13;5050537;28;20025;-38
2021/04/07 07:15:46;;;;;;;33.67;17.95;;;;;;;12.45;63.58;98377.69;5050391;28;20048;-39
2021/04/07 07:18:19;;;;;;;30.33;17.55;;;;;;;12.91;63.06;98378.22;5049799;28;20056;-39
2021/04/07 07:20:44;;;;;;;28.95;17.60;;;;;;;12.81;63.25;98380.75;5049978;28;20037;-38
2021/04/07 07:23:22;;;;;;;26.42;14.85;;;;;;;13.14;59.56;98382.44;5050300;28;20098;-39
2021/04/07 07:26:00;;;;;;;24.27;14.95;;;;;;;13.92;57.79;98389.19;5050399;28;20043;-39
2021/04/07 07:28:26;;;;;;;23.17;14.45;;;;;;;14.19;57.14;98384.53;5048544;28;20067;-38
2021/04/07 07:30:51;;;;;;;28.70;15.80;;;;;;;14.46;56.94;98392.41;5049939;28;20052;-38
2021/04/07 07:33:18;;;;;;;26.92;14.57;;;;;;;14.58;55.77;98388.75;5050622;28;20087;-38
2021/04/07 07:35:45;;;;;;;84.25;45.95;;;;;;;14.28;55.25;98392.91;5050296;28;20096;-38
2021/04/07 07:38:10;;;;;;;20.52;10.85;;;;;;;14.14;54.88;98386.38;5049691;28;20520;-38
2021/04/07 07:40:38;;;;;;;11.48;7.30;;;;;;;13.41;53.47;98371.75;5050190;28;20110;-38
2021/04/07 07:43:03;;;;;;;13.88;6.88;;;;;;;13.30;53.33;98381.53;5049643;28;20040;-39
2021/04/07 07:45:32;;;;;;;9.77;5.88;;;;;;;13.32;52.70;98391.16;5049713;28;20028;-38
2021/04/07 07:48:04;;;;;;;7.15;5.00;;;;;;;13.35;51.79;98382.66;5050006;28;20021;-50
2021/04/07 07:50:40;;;;;;;11.27;5.50;;;;;;;13.73;51.90;98380.78;5050218;28;20143;-50
2021/04/07 07:53:21;;;;;;;6.03;4.50;;;;;;;13.28;51.11;98380.94;5050371;28;20056;-51
2021/04/07 07:55:50;;;;;;;11.20;4.78;;;;;;;12.46;52.66;98385.44;5050496;28;20044;-53
2021/04/07 07:58:15;;;;;;;8.60;4.50;;;;;;;12.71;52.12;98416.16;5049839;28;20373;-51
2021/04/07 08:00:41;;;;;;;6.68;4.70;;;;;;;13.32;52.30;98407.19;5049554;28;20028;-52
2021/04/07 08:03:07;;;;;;;7.25;4.00;;;;;;;12.99;50.57;98433.03;5050059;28;20033;-49
2021/04/07 08:05:33;;;;;;;4.97;3.13;;;;;;;13.13;50.89;98444.13;5050472;28;20522;-49
2021/04/07 08:07:58;;;;;;;7.22;3.60;;;;;;;13.36;49.17;98435.03;5050223;28;20033;-49
2021/04/07 08:10:24;;;;;;;4.22;3.15;;;;;;;13.62;49.45;98431.50;5048402;28;20442;-51
2021/04/07 08:12:49;;;;;;;7.20;3.80;;;;;;;13.68;49.03;98435.81;5050177;28;20029;-51
2021/04/07 08:15:15;;;;;;;4.93;3.00;;;;;;;13.24;48.53;98432.47;5032019;28;20028;-50
2021/04/07 08:17:40;;;;;;;4.65;2.90;;;;;;;12.93;48.86;98453.53;5050331;28;20052;-51
2021/04/07 08:20:07;;;;;;;6.80;3.00;;;;;;;12.42;50.30;98451.03;5051012;28;20048;-52
2021/04/07 08:22:36;;;;;;;5.15;3.47;;;;;;;12.64;50.77;98447.56;5053618;28;20082;-53
2021/04/07 08:25:03;;;;;;;10.00;4.03;;;;;;;13.01;49.64;98445.06;5047795;28;20056;-53
2021/04/07 08:27:28;;;;;;;7.38;4.10;;;;;;;12.74;50.81;98447.72;5042352;28;20103;-48
2021/04/07 08:29:54;;;;;;;8.00;4.05;;;;;;;13.12;50.25;98440.66;5043080;28;20025;-51
2021/04/07 08:32:20;;;;;;;5.55;3.80;;;;;;;12.97;50.33;98435.94;5040617;28;20096;-38
2021/04/07 08:34:46;;;;;;;5.60;3.70;;;;;;;12.58;51.04;98444.03;5037926;28;20543;-39
2021/04/07 08:37:17;;;;;;;8.95;3.92;;;;;;;12.62;50.63;98471.03;5037964;28;20029;-39
2021/04/07 08:39:43;;;;;;;5.00;3.42;;;;;;;12.63;49.98;98467.31;5041448;28;20481;-38
2021/04/07 08:42:09;;;;;;;5.35;3.60;;;;;;;12.31;51.19;98466.09;5037742;28;20471;-38
2021/04/07 08:44:34;;;;;;;6.28;4.20;;;;;;;12.40;51.19;98477.16;5015574;28;20460;-39
2021/04/07 08:47:00;;;;;;;19.85;10.45;;;;;;;12.19;51.31;98483.28;5033056;28;20048;-39
2021/04/07 08:49:35;;;;;;;6.07;3.42;;;;;;;11.97;51.47;98489.31;5050758;28;20029;-38
2021/04/07 08:52:22;;;;;;;10.57;3.25;;;;;;;12.31;51.38;98489.31;5052307;28;20138;-39
2021/04/07 08:54:49;;;;;;;5.68;3.35;;;;;;;12.52;49.84;98506.41;5052985;28;20025;-39
2021/04/07 08:57:25;;;;;;;6.40;3.40;;;;;;;12.60;49.80;98502.50;5052953;28;20435;-39
2021/04/07 08:59:54;;;;;;;6.07;2.70;;;;;;;12.29;49.52;98513.53;5052731;28;20483;-38
2021/04/07 09:02:20;;;;;;;4.47;3.03;;;;;;;12.55;48.39;98505.13;5052771;28;20033;-38
2021/04/07 09:05:30;;;;;;;4.63;3.10;;;;;;;12.13;48.64;98517.06;5052452;28;20492;-38
2021/04/07 09:07:57;;;;;;;4.00;2.90;;;;;;;11.77;49.79;98523.63;4991016;28;20034;-39
2021/04/07 09:10:23;;;;;;;3.85;2.55;;;;;;;11.93;49.28;98520.19;5038776;28;20510;-38
2021/04/07 09:12:49;;;;;;;6.60;2.90;;;;;;;11.80;49.84;98515.13;5050191;28;20044;-39
2021/04/07 09:15:25;;;;;;;6.57;3.00;;;;;;;12.27;48.69;98507.66;5051841;28;20384;-39
2021/04/07 09:17:52;;;;;;;3.92;2.80;;;;;;;11.63;50.04;98499.13;5052330;28;20028;-38
2021/04/07 09:20:33;;;;;;;3.25;2.53;;;;;;;11.37;50.64;98508.56;5052481;28;20029;-39
2021/04/07 09:23:15;;;;;;;3.40;2.38;;;;;;;11.31;50.69;98507.66;5052524;28;20063;-38
2021/04/07 09:26:19;;;;;;;3.45;2.63;;;;;;;11.17;50.66;98508.97;5052660;28;20499;-38
2021/04/07 09:28:49;;;;;;;8.85;3.20;;;;;;;11.38;50.91;98518.13;5052734;28;20021;-39
2021/04/07 09:31:25;;;;;;;;;;;;;;;11.30;50.30;98517.47;5053022;28;20025;-39
2021/04/07 09:33:55;;;;;;;7.40;3.15;;;;;;;11.26;51.16;98507.53;5052395;28;20354;-38
2021/04/07 09:36:27;;;;;;;5.22;3.22;;;;;;;11.30;51.08;98528.13;5052394;28;20055;-38
2021/04/07 09:38:54;;;;;;;13.07;7.18;;;;;;;11.42;51.63;98521.94;5052117;28;20071;-37
2021/04/07 09:41:25;;;;;;;7.90;3.35;;;;;;;11.48;51.81;98524.47;5051562;28;20515;-39
2021/04/07 09:43:51;;;;;;;9.50;3.50;;;;;;;11.63;52.18;98531.09;5052430;28;20163;-38
2021/04/07 09:46:16;;;;;;;5.97;3.40;;;;;;;11.44;51.78;98528.66;5051991;28;20437;-38
2021/04/07 09:48:42;;;;;;;6.57;3.65;;;;;;;11.57;51.85;98521.41;5051835;28;20029;-38
2021/04/07 09:51:52;;;;;;;7.30;3.80;;;;;;;11.98;51.36;98541.59;5051759;28;20056;-38
2021/04/07 09:54:24;;;;;;;4.90;3.55;;;;;;;11.47;52.49;98536.16;5049602;28;20416;-38
2021/04/07 09:56:50;;;;;;;7.30;4.30;;;;;;;11.51;52.17;98536.50;5052333;28;20029;-38
2021/04/07 09:59:16;;;;;;;9.25;3.45;;;;;;;11.60;51.83;98544.94;5052118;28;20140;-38
2021/04/07 10:01:42;;;;;;;5.22;3.42;;;;;;;11.65;51.00;98543.16;5050313;28;20059;-39
2021/04/07 10:04:08;;;;;;;5.20;3.30;;;;;;;11.37;51.42;98540.50;5050912;28;20052;-37
2021/04/07 10:06:33;;;;;;;5.18;3.58;;;;;;;11.50;51.77;98551.69;5040169;28;20029;-37
2021/04/07 10:09:03;;;;;;;8.75;3.15;;;;;;;11.33;51.70;98550.81;5039904;28;20405;-37
2021/04/07 10:11:29;;;;;;;7.80;3.17;;;;;;;11.24;52.24;98555.72;5040764;28;20477;-38
2021/04/07 10:13:58;;;;;;;5.65;3.38;;;;;;;11.21;53.24;98560.69;5040570;28;20037;-39
2021/04/07 10:16:24;;;;;;;5.18;3.50;;;;;;;10.88;53.14;98562.97;5037387;28;20029;-38
2021/04/07 10:18:50;;;;;;;4.68;3.55;;;;;;;10.96;53.14;98561.78;5041829;28;20047;-39
2021/04/07 10:21:17;;;;;;;5.32;3.72;;;;;;;10.99;54.21;98569.31;5039677;28;20614;-39
2021/04/07 10:23:43;;;;;;;4.72;3.25;;;;;;;10.70;53.86;98571.06;5043112;28;20064;-39
2021/04/07 10:26:09;;;;;;;3.67;2.85;;;;;;;10.62;53.84;98568.78;5036527;28;20045;-38
2021/04/07 10:28:35;;;;;;;3.70;3.03;;;;;;;10.73;53.90;98568.75;5049442;28;20040;-38
2021/04/07 10:31:06;;;;;;;5.47;3.03;;;;;;;10.64;54.25;98566.69;5049396;28;20036;-38
2021/04/07 10:33:32;;;;;;;4.40;3.20;;;;;;;10.60;54.04;98579.66;5051359;28;20025;-38
2021/04/07 10:35:58;;;;;;;12.82;7.65;;;;;;;10.86;53.91;98591.66;5051459;28;20071;-39
2021/04/07 10:38:24;;;;;;;4.22;2.90;;;;;;;10.53;54.47;98586.97;5051509;28;20063;-39
2021/04/07 10:40:49;;;;;;;5.20;3.40;;;;;;;10.40;55.01;98598.63;5049175;28;20020;-39
2021/04/07 10:43:16;;;;;;;5.97;3.35;;;;;;;10.26;54.37;98603.31;5032200;28;20116;-38
2021/04/07 10:45:45;;;;;;;4.80;3.22;;;;;;;10.48;53.59;98608.91;5050494;28;20025;-38
2021/04/07 10:48:10;;;;;;;4.53;2.95;;;;;;;10.18;54.78;98620.41;5042194;28;20025;-37
2021/04/07 10:50:38;;;;;;;6.97;3.95;;;;;;;10.27;55.43;98628.84;5043955;28;20480;-39
2021/04/07 10:53:03;;;;;;;4.55;3.17;;;;;;;9.79;56.53;98651.81;5050544;28;20043;-39
2021/04/07 10:55:29;;;;;;;6.20;3.40;;;;;;;9.83;56.56;98640.75;5050071;28;20029;-38
2021/04/07 10:57:56;;;;;;;5.75;3.75;;;;;;;9.78;56.61;98638.75;5050311;28;20029;-38
2021/04/07 11:00:31;;;;;;;3.95;3.10;;;;;;;9.91;56.04;98643.09;5050718;28;20112;-37
2021/04/07 11:02:57;;;;;;;11.73;3.30;;;;;;;9.62;56.92;98658.81;5050618;28;20104;-38
2021/04/07 11:05:24;;;;;;;5.72;3.50;;;;;;;9.33;57.42;98644.44;5048853;28;20029;-37
2021/04/07 11:08:04;;;;;;;6.47;3.58;;;;;;;9.50;57.51;98665.88;5048685;28;20410;-38
2021/04/07 11:10:40;;;;;;;5.65;3.33;;;;;;;9.02;59.11;98667.41;5050001;28;20072;-39
2021/04/07 11:13:05;;;;;;;5.72;3.75;;;;;;;9.08;58.67;98663.06;5050127;28;20044;-38
2021/04/07 11:15:31;;;;;;;7.05;3.58;;;;;;;9.31;58.60;98681.00;5049141;28;20393;-38
2021/04/07 11:17:56;;;;;;;4.88;3.40;;;;;;;9.17;59.75;98669.72;5048751;28;20052;-38
2021/04/07 11:20:22;;;;;;;5.57;3.80;;;;;;;9.29;60.22;98678.59;5050146;28;20033;-37
2021/04/07 11:22:48;;;;;;;5.72;3.33;;;;;;;9.21;60.21;98681.53;5049963;28;20207;-38